Terminal Aerodrome Forecast
Issued by NWS

Home | Current Version | Previous Version | Text Only | Print | Product List | Glossary On
Versions: 1 2 3 4 5 6 7 8 9 10 11 12 13 14 15 16 17 18
079
FTAK31 PAJN 251920 AAA
TAFAWG
TAF AMD
PAWG 251920Z 2519/2618 13005KT P6SM -RA SCT005 OVC015
      TEMPO 2519/2521 4SM -RASN BKN005
     FM252100 15007KT P6SM -SHRA SCT025 OVC040
     FM260600 11006KT P6SM VCSH SCT015 BKN100
     FM261400 08007KT P6SM -RA OVC045
      AMD LTD TO CLD VIS AND WIND 2606/2615=

USA.gov is the U.S. government's official web portal to all federal, state and local government web resources and services.